TW-0031 weather

Zhuzi Shan Helipad
Taipei County, Taiwan

Public forecast

Using degrees Celsius for public forecast. Weather courtesy of forecast.io.

METAR (pilot weather report)

Closest report is Taipei Songshan Airport, 8.8 nm (16.3 km) S. Retrieved 2019/07/18 10:30 UTC (41 seconds ago):

RCSS 181030Z 29011KT 9999 FEW010 BKN022 BKN045 29/27 Q0995 NOSIG RMK 29010KT/R10 A2940

TAF (pilot weather forecast)

Closest forecast is Taipei Songshan Airport, 8.8 nm (16.3 km) S. Retrieved 2019/07/18 06:00 UTC (5 hours ago):

TAF RCSS 180500Z 1806/1906 09005G15KT 8000 FEW012 BKN018 TEMPO 1806/1812 27005G15KT 3200 SHRA SCT008 BKN016 BKN030 BECMG 1812/1814 27008KT TEMPO 1812/1818 4000 SHRA FEW008 BKN018 BKN030 TEMPO 1818/1824 4000 BR SCT008 BKN012 BKN030